Severn — WDE5806 — position and weather

sailwx.info

Track history (hours):
 
Tides and Currents Weather Stations Pressure Air Temp Water Temp Dewpoint Dewpoint Depression Visibility Wind Speed Wind Dir Waves Ship Positions

Severn

Owner: Vane Line Bunkering, Inc., Philadelphia, PA. More information available from US FCC via Universal Licensing System and Coast Guard Vessel Documentation Center.

Last reported at 2018-Jan-23 03:28 UTC. Time now 2018-Jan-23 03:39 UTC.
Position N 40°40' W 074°04'.

Length 33 m; draft 5 m.

Type: Towing. MMSI: 367371840.

Date/timePositionNaut miles runAvg speedWind from/ knotsBaromVisibWave heightAir tempDewpointWater temp
2018-Jan-23 03:28N 40°40' W 074°04'0 0.0
2018-Jan-23 02:58N 40°40' W 074°04'0 0.0
2018-Jan-23 02:28N 40°40' W 074°04'1 2.2
2018-Jan-23 02:00N 40°39' W 074°05'2 4.3
2018-Jan-23 01:30N 40°39' W 074°08'2 3.3
2018-Jan-23 01:00N 40°39' W 074°10'2 4.0
2018-Jan-23 00:29N 40°39' W 074°07'1 2.0
2018-Jan-22 23:59N 40°39' W 074°06'1 1.5
2018-Jan-22 23:30N 40°39' W 074°05'2 3.2
2018-Jan-22 23:01N 40°39' W 074°03'0 0.9
2018-Jan-22 22:30N 40°38' W 074°03'2 5.0
2018-Jan-22 22:00N 40°40' W 074°00'0 0.0
2018-Jan-22 21:31N 40°40' W 074°00'3 6.1
2018-Jan-22 21:00N 40°39' W 074°04'4 8.9
2018-Jan-22 20:30N 40°39' W 074°10'2 3.7
2018-Jan-22 19:59N 40°38' W 074°12'2 3.1
2018-Jan-22 19:30N 40°36' W 074°12'0 0.5
2018-Jan-22 18:59N 40°36' W 074°12'1 2.0
2018-Jan-22 18:30N 40°37' W 074°12'2 3.2
2018-Jan-22 17:59N 40°38' W 074°12'3 6.0
2018-Jan-22 17:26N 40°39' W 074°07'2 5.8
2018-Jan-22 17:00N 40°39' W 074°04'3 5.6
2018-Jan-22 16:30N 40°40' W 074°01'0 0.5
2018-Jan-22 16:00N 40°40' W 074°01'2 3.5
2018-Jan-22 15:31N 40°39' W 074°03'2 3.7
2018-Jan-22 15:00N 40°39' W 074°05'3 5.1
2018-Jan-22 14:30N 40°40' W 074°09'2 4.4
2018-Jan-22 14:00N 40°42' W 074°08'0 0.0
2018-Jan-22 09:42N 40°42' W 074°08'0 0.0
2018-Jan-22 09:18N 40°42' W 074°08'0 0.0
2018-Jan-22 08:57N 40°42' W 074°08'0 0.0
2018-Jan-22 08:30N 40°42' W 074°08'0 0.0
2018-Jan-22 08:00N 40°42' W 074°08'0 0.0
2018-Jan-22 07:30N 40°42' W 074°08'0 0.0
2018-Jan-22 07:00N 40°42' W 074°08'1 1.9
2018-Jan-22 06:30N 40°41' W 074°09'1 1.3
2018-Jan-22 05:58N 40°41' W 074°10'0 0.0
2018-Jan-22 05:28N 40°41' W 074°10'0 0.0
2018-Jan-22 04:58N 40°41' W 074°10'0 0.0
2018-Jan-22 04:28N 40°41' W 074°10'0 0.0
2018-Jan-22 03:55N 40°41' W 074°10'0 0.0
2018-Jan-22 03:25N 40°41' W 074°10'0 0.0
2018-Jan-22 02:55N 40°41' W 074°10'0 0.0
2018-Jan-22 02:28N 40°41' W 074°10'0 0.0
2018-Jan-22 01:49N 40°41' W 074°10'0 0.0
2018-Jan-22 01:16N 40°41' W 074°10'0 0.0
2018-Jan-22 00:55N 40°41' W 074°10'0 0.0
2018-Jan-22 00:25N 40°41' W 074°10'0 0.2
2018-Jan-22 00:00N 40°41' W 074°09'3 5.5
2018-Jan-21 23:30N 40°39' W 074°08'5 9.1
2018-Jan-21 22:59N 40°39' W 074°02'2 3.8
2018-Jan-21 22:30N 40°40' W 074°01'0 0.4
2018-Jan-21 21:51N 40°40' W 074°00'0 0.0
2018-Jan-21 21:30N 40°40' W 074°00'0 0.0
2018-Jan-21 21:00N 40°40' W 074°00'0 0.0
2018-Jan-21 20:30N 40°40' W 074°00'0 0.0
2018-Jan-21 20:00N 40°40' W 074°00'0 0.0
2018-Jan-21 19:29N 40°40' W 074°00'0 0.6
2018-Jan-21 19:00N 40°40' W 074°00'1 2.3
2018-Jan-21 18:30N 40°41' W 074°01'4 7.8
2018-Jan-21 18:00N 40°45' W 073°58'4 7.3
2018-Jan-21 17:30N 40°47' W 073°55'2 3.5
2018-Jan-21 17:00N 40°48' W 073°53'3 5.6
2018-Jan-21 16:30N 40°48' W 073°49'2 0.6
2018-Jan-21 13:28N 40°49' W 073°47'0 0.2
2018-Jan-21 12:47N 40°49' W 073°47'2 6.3
2018-Jan-21 12:28N 40°51' W 073°46'6 7.3
2018-Jan-21 11:39N 40°55' W 073°40'  
2018-Jan-19 00:44N 41°11' W 072°35'310.0
2018-Jan-19 00:29N 41°10' W 072°31'510.0
2018-Jan-19 00:00N 41°11' W 072°25'5 9.7
2018-Jan-18 23:30N 41°13' W 072°19'5 9.4
2018-Jan-18 23:00N 41°14' W 072°13'100 7.1
2018-Jan-18 08:58N 42°18' W 070°30'4 9.5
2018-Jan-18 08:30N 42°23' W 070°30'5 9.5
2018-Jan-18 08:00N 42°27' W 070°31'5 9.7
2018-Jan-18 07:30N 42°32' W 070°31'510.3
2018-Jan-18 07:00N 42°37' W 070°32'510.3
2018-Jan-18 06:31N 42°42' W 070°32'5 9.4
2018-Jan-18 06:00N 42°47' W 070°34'5 9.3
2018-Jan-18 05:30N 42°51' W 070°36'5 9.4
2018-Jan-18 05:00N 42°56' W 070°38'  
Track history (hours):
 
Tides and Currents Weather Stations Pressure Air Temp Water Temp Dewpoint Dewpoint Depression Visibility Wind Speed Wind Dir Waves Ship Positions

Severn

Owner: Vane Line Bunkering, Inc., Philadelphia, PA. More information available from US FCC via Universal Licensing System and Coast Guard Vessel Documentation Center.

Last reported at 2018-Jan-23 03:28 UTC. Time now 2018-Jan-23 03:39 UTC.
Position N 40°40' W 074°04'.

Length 33 m; draft 5 m.

Type: Towing. MMSI: 367371840.

Date/timePositionNaut miles runAvg speedWind from/ knotsBaromVisibWave heightAir tempDewpointWater temp
2018-Jan-23 03:28N 40°40' W 074°04'0 0.0
2018-Jan-23 02:58N 40°40' W 074°04'0 0.0
2018-Jan-23 02:28N 40°40' W 074°04'1 2.2
2018-Jan-23 02:00N 40°39' W 074°05'2 4.3
2018-Jan-23 01:30N 40°39' W 074°08'2 3.3
2018-Jan-23 01:00N 40°39' W 074°10'2 4.0
2018-Jan-23 00:29N 40°39' W 074°07'1 2.0
2018-Jan-22 23:59N 40°39' W 074°06'1 1.5
2018-Jan-22 23:30N 40°39' W 074°05'2 3.2
2018-Jan-22 23:01N 40°39' W 074°03'0 0.9
2018-Jan-22 22:30N 40°38' W 074°03'2 5.0
2018-Jan-22 22:00N 40°40' W 074°00'0 0.0
2018-Jan-22 21:31N 40°40' W 074°00'3 6.1
2018-Jan-22 21:00N 40°39' W 074°04'4 8.9
2018-Jan-22 20:30N 40°39' W 074°10'2 3.7
2018-Jan-22 19:59N 40°38' W 074°12'2 3.1
2018-Jan-22 19:30N 40°36' W 074°12'0 0.5
2018-Jan-22 18:59N 40°36' W 074°12'1 2.0
2018-Jan-22 18:30N 40°37' W 074°12'2 3.2
2018-Jan-22 17:59N 40°38' W 074°12'3 6.0
2018-Jan-22 17:26N 40°39' W 074°07'2 5.8
2018-Jan-22 17:00N 40°39' W 074°04'3 5.6
2018-Jan-22 16:30N 40°40' W 074°01'0 0.5
2018-Jan-22 16:00N 40°40' W 074°01'2 3.5
2018-Jan-22 15:31N 40°39' W 074°03'2 3.7
2018-Jan-22 15:00N 40°39' W 074°05'3 5.1
2018-Jan-22 14:30N 40°40' W 074°09'2 4.4
2018-Jan-22 14:00N 40°42' W 074°08'0 0.0
2018-Jan-22 09:42N 40°42' W 074°08'0 0.0
2018-Jan-22 09:18N 40°42' W 074°08'0 0.0
2018-Jan-22 08:57N 40°42' W 074°08'0 0.0
2018-Jan-22 08:30N 40°42' W 074°08'0 0.0
2018-Jan-22 08:00N 40°42' W 074°08'0 0.0
2018-Jan-22 07:30N 40°42' W 074°08'0 0.0
2018-Jan-22 07:00N 40°42' W 074°08'1 1.9
2018-Jan-22 06:30N 40°41' W 074°09'1 1.3
2018-Jan-22 05:58N 40°41' W 074°10'0 0.0
2018-Jan-22 05:28N 40°41' W 074°10'0 0.0
2018-Jan-22 04:58N 40°41' W 074°10'0 0.0
2018-Jan-22 04:28N 40°41' W 074°10'0 0.0
2018-Jan-22 03:55N 40°41' W 074°10'0 0.0
2018-Jan-22 03:25N 40°41' W 074°10'0 0.0
2018-Jan-22 02:55N 40°41' W 074°10'0 0.0
2018-Jan-22 02:28N 40°41' W 074°10'0 0.0
2018-Jan-22 01:49N 40°41' W 074°10'0 0.0
2018-Jan-22 01:16N 40°41' W 074°10'0 0.0
2018-Jan-22 00:55N 40°41' W 074°10'0 0.0
2018-Jan-22 00:25N 40°41' W 074°10'0 0.2
2018-Jan-22 00:00N 40°41' W 074°09'3 5.5
2018-Jan-21 23:30N 40°39' W 074°08'5 9.1
2018-Jan-21 22:59N 40°39' W 074°02'2 3.8
2018-Jan-21 22:30N 40°40' W 074°01'0 0.4
2018-Jan-21 21:51N 40°40' W 074°00'0 0.0
2018-Jan-21 21:30N 40°40' W 074°00'0 0.0
2018-Jan-21 21:00N 40°40' W 074°00'0 0.0
2018-Jan-21 20:30N 40°40' W 074°00'0 0.0
2018-Jan-21 20:00N 40°40' W 074°00'0 0.0
2018-Jan-21 19:29N 40°40' W 074°00'0 0.6
2018-Jan-21 19:00N 40°40' W 074°00'1 2.3
2018-Jan-21 18:30N 40°41' W 074°01'4 7.8
2018-Jan-21 18:00N 40°45' W 073°58'4 7.3
2018-Jan-21 17:30N 40°47' W 073°55'2 3.5
2018-Jan-21 17:00N 40°48' W 073°53'3 5.6
2018-Jan-21 16:30N 40°48' W 073°49'2 0.6
2018-Jan-21 13:28N 40°49' W 073°47'0 0.2
2018-Jan-21 12:47N 40°49' W 073°47'2 6.3
2018-Jan-21 12:28N 40°51' W 073°46'6 7.3
2018-Jan-21 11:39N 40°55' W 073°40'  
2018-Jan-19 00:44N 41°11' W 072°35'310.0
2018-Jan-19 00:29N 41°10' W 072°31'510.0
2018-Jan-19 00:00N 41°11' W 072°25'5 9.7
2018-Jan-18 23:30N 41°13' W 072°19'5 9.4
2018-Jan-18 23:00N 41°14' W 072°13'100 7.1
2018-Jan-18 08:58N 42°18' W 070°30'4 9.5
2018-Jan-18 08:30N 42°23' W 070°30'5 9.5
2018-Jan-18 08:00N 42°27' W 070°31'5 9.7
2018-Jan-18 07:30N 42°32' W 070°31'510.3
2018-Jan-18 07:00N 42°37' W 070°32'510.3
2018-Jan-18 06:31N 42°42' W 070°32'5 9.4
2018-Jan-18 06:00N 42°47' W 070°34'5 9.3
2018-Jan-18 05:30N 42°51' W 070°36'5 9.4
2018-Jan-18 05:00N 42°56' W 070°38'  

Dump ship's entire track history